createdAt,value
2022-10-28T00:01:03.731Z,23.33
2022-10-28T00:06:30.117Z,22.40
2022-10-28T00:11:53.783Z,22.65
2022-10-28T00:17:18.750Z,21.63
2022-10-28T00:22:42.500Z,22.58
2022-10-28T00:28:06.389Z,21.65
2022-10-28T00:33:31.339Z,21.73
2022-10-28T00:38:56.437Z,23.67
2022-10-28T00:44:47.351Z,23.33
2022-10-28T00:50:21.059Z,22.00
2022-10-28T00:55:46.008Z,23.13
2022-10-28T01:01:09.624Z,21.85
2022-10-28T01:06:34.638Z,22.25
2022-10-28T01:12:07.065Z,22.98
2022-10-28T01:17:47.942Z,21.08
2022-10-28T01:23:19.413Z,22.58
2022-10-28T01:29:03.157Z,23.33
2022-10-28T01:34:34.675Z,23.65
2022-10-28T01:40:04.526Z,23.15
2022-10-28T01:45:35.126Z,22.55
2022-10-28T01:51:05.086Z,22.33
2022-10-28T01:56:32.351Z,21.85
2022-10-28T02:01:57.008Z,23.17
2022-10-28T02:07:21.999Z,23.10
2022-10-28T02:12:49.374Z,21.50
2022-10-28T02:18:28.036Z,23.08
2022-10-28T02:23:59.465Z,22.98
2022-10-28T02:29:30.258Z,22.35
2022-10-28T02:34:57.280Z,22.58
2022-10-28T02:40:25.953Z,22.27
2022-10-28T02:45:54.128Z,23.35
2022-10-28T02:51:20.995Z,22.27
2022-10-28T02:56:52.543Z,22.58
2022-10-28T03:02:16.194Z,22.85
2022-10-28T03:07:39.866Z,20.10
2022-10-28T03:13:04.767Z,21.63
2022-10-28T03:18:28.345Z,23.83
2022-10-28T03:23:51.974Z,23.02
2022-10-28T03:29:17.173Z,22.92
2022-10-28T03:34:40.707Z,23.15
2022-10-28T03:40:07.870Z,24.67
2022-10-28T03:45:32.769Z,24.15
2022-10-28T03:50:56.540Z,23.30
2022-10-28T03:56:20.165Z,23.90
2022-10-28T04:01:45.205Z,25.05
2022-10-28T04:07:08.895Z,25.90
2022-10-28T04:12:32.461Z,26.33
2022-10-28T04:17:58.181Z,26.75
2022-10-28T04:23:22.234Z,27.30
2022-10-28T04:28:45.786Z,28.25
2022-10-28T04:34:10.729Z,27.95
2022-10-28T04:39:34.355Z,28.73
2022-10-28T04:44:57.934Z,29.83
2022-10-28T04:50:22.859Z,31.10
2022-10-28T04:55:46.475Z,31.48
2022-10-28T05:01:11.064Z,30.42
2022-10-28T05:06:36.110Z,30.50
2022-10-28T05:11:59.678Z,32.10
2022-10-28T05:17:23.279Z,30.90
2022-10-28T05:22:48.766Z,31.83
2022-10-28T05:28:12.299Z,31.30
2022-10-28T05:33:35.871Z,30.00
2022-10-28T05:39:00.826Z,29.60
2022-10-28T05:44:24.514Z,30.40
2022-10-28T05:49:48.089Z,27.85
2022-10-28T05:55:13.010Z,27.58
2022-10-28T06:00:37.835Z,23.80
2022-10-28T06:06:01.618Z,24.48
2022-10-28T06:11:25.040Z,25.75
2022-10-28T06:16:48.767Z,21.08
2022-10-28T06:22:12.311Z,22.73
2022-10-28T06:27:37.238Z,21.50
2022-10-28T06:33:00.816Z,22.95
2022-10-28T06:38:24.408Z,21.65
2022-10-28T06:43:49.375Z,21.08
2022-10-28T06:49:14.490Z,21.00
2022-10-28T06:54:38.112Z,20.45
2022-10-28T07:00:03.287Z,21.50
2022-10-28T07:05:28.876Z,21.80
2022-10-28T07:10:56.443Z,20.38
2022-10-28T07:16:21.417Z,19.40
2022-10-28T07:21:45.087Z,19.17
2022-10-28T07:27:09.450Z,20.15
2022-10-28T07:32:34.573Z,18.83
2022-10-28T07:38:01.121Z,18.60
2022-10-28T07:43:24.688Z,18.10
2022-10-28T07:48:49.643Z,18.98
2022-10-28T07:54:13.212Z,16.85
2022-10-28T07:59:36.805Z,16.88
2022-10-28T08:05:02.424Z,15.27
2022-10-28T08:10:27.539Z,17.10
2022-10-28T08:15:56.158Z,16.50
2022-10-28T08:21:21.188Z,16.60
2022-10-28T08:26:44.868Z,17.20
2022-10-28T08:32:09.409Z,16.17
2022-10-28T08:37:35.429Z,16.30
2022-10-28T08:43:05.275Z,15.27
2022-10-28T08:48:32.606Z,12.65
2022-10-28T08:54:01.906Z,12.70
2022-10-28T08:59:30.615Z,12.13
2022-10-28T09:05:01.502Z,12.25
2022-10-28T09:16:22.695Z,13.68
2022-10-28T09:21:49.348Z,13.98
2022-10-28T09:27:24.128Z,11.73
2022-10-28T09:32:55.363Z,12.43
2022-10-28T09:38:28.172Z,12.93
2022-10-28T09:43:56.118Z,12.30
2022-10-28T09:49:25.246Z,13.50
2022-10-28T09:54:51.782Z,12.75
2022-10-28T10:00:18.637Z,12.18
2022-10-28T10:05:45.826Z,11.25
2022-10-28T10:11:22.000Z,13.90
2022-10-28T10:16:50.953Z,13.30
2022-10-28T10:22:31.022Z,13.25
2022-10-28T10:27:57.782Z,13.63
2022-10-28T10:33:25.425Z,13.77
2022-10-28T10:38:51.519Z,14.65
2022-10-28T10:44:33.858Z,14.15
2022-10-28T10:55:41.327Z,13.33
2022-10-28T11:01:07.352Z,13.20
2022-10-28T11:06:38.038Z,12.93
2022-10-28T11:12:05.566Z,10.98
2022-10-28T11:17:30.537Z,13.13
2022-10-28T11:23:09.899Z,12.68
2022-10-28T11:28:46.685Z,12.13
2022-10-28T11:34:25.170Z,11.52
2022-10-28T11:40:01.463Z,13.35
2022-10-28T11:45:32.380Z,13.38
2022-10-28T11:51:07.809Z,13.05
2022-10-28T11:56:37.953Z,16.13
2022-10-28T12:02:16.787Z,13.27
2022-10-28T12:07:54.964Z,14.90
2022-10-28T12:13:33.170Z,14.27
2022-10-28T12:19:02.888Z,14.23
2022-10-28T12:24:28.149Z,15.48
2022-10-28T12:29:58.126Z,14.88
2022-10-28T12:35:27.942Z,15.53
2022-10-28T12:40:57.130Z,14.43
2022-10-28T12:46:27.157Z,14.63
2022-10-28T12:51:52.569Z,15.50
2022-10-28T12:57:18.220Z,15.60
2022-10-28T13:02:47.655Z,16.02
2022-10-28T13:08:31.377Z,15.68
2022-10-28T13:14:02.906Z,15.55
2022-10-28T13:19:48.943Z,15.07
2022-10-28T13:25:26.633Z,16.30
2022-10-28T13:30:55.127Z,15.48
2022-10-28T13:36:21.367Z,16.17
2022-10-28T13:41:48.825Z,16.75
2022-10-28T13:47:29.172Z,16.17
2022-10-28T13:53:44.339Z,16.43
2022-10-28T13:59:22.241Z,17.48
2022-10-28T14:04:55.896Z,16.85
2022-10-28T14:10:25.258Z,16.67
2022-10-28T14:15:51.549Z,16.40
2022-10-28T14:21:15.195Z,17.40
2022-10-28T14:27:30.928Z,19.73
2022-10-28T14:33:22.624Z,37.70
2022-10-28T14:39:09.321Z,21.92
2022-10-28T14:44:47.605Z,22.92
2022-10-28T14:50:20.249Z,21.50
2022-10-28T14:55:48.562Z,25.83
2022-10-28T15:01:23.006Z,20.52
2022-10-28T15:06:51.365Z,21.85
2022-10-28T15:12:17.936Z,26.92
2022-10-28T15:17:42.757Z,20.95
2022-10-28T15:23:15.134Z,31.00
2022-10-28T15:28:39.788Z,24.50
2022-10-28T15:34:03.402Z,24.30
2022-10-28T15:39:28.749Z,21.83
2022-10-28T15:44:55.949Z,21.17
2022-10-28T15:50:29.136Z,28.70
2022-10-28T15:56:25.329Z,24.15
2022-10-28T16:01:50.463Z,25.65
2022-10-28T16:07:14.321Z,20.40
2022-10-28T16:12:37.957Z,21.48
2022-10-28T16:18:02.954Z,21.00
2022-10-28T16:23:33.899Z,19.73
2022-10-28T16:34:24.005Z,23.10
2022-10-28T16:39:47.624Z,28.20
2022-10-28T16:45:15.661Z,24.40
2022-10-28T16:50:48.251Z,24.33
2022-10-28T16:56:14.988Z,22.67
2022-10-28T17:01:39.647Z,24.80
2022-10-28T17:07:04.701Z,23.75
2022-10-28T17:12:29.168Z,25.38
2022-10-28T17:17:54.059Z,24.13
2022-10-28T17:23:19.012Z,23.90
2022-10-28T17:28:42.667Z,23.10
2022-10-28T17:34:06.388Z,26.30
2022-10-28T17:39:31.669Z,26.05
2022-10-28T17:44:55.247Z,28.83
2022-10-28T17:50:18.806Z,34.13
2022-10-28T17:55:43.818Z,27.75
2022-10-28T18:01:08.987Z,26.83
2022-10-28T18:06:32.828Z,24.65
2022-10-28T18:11:57.719Z,24.55
2022-10-28T18:17:21.335Z,25.10
2022-10-28T18:22:44.904Z,25.73
2022-10-28T18:28:09.869Z,24.08
2022-10-28T18:33:34.469Z,26.40
2022-10-28T18:38:58.678Z,26.80
2022-10-28T18:44:30.057Z,28.77
2022-10-28T18:49:54.444Z,27.00
2022-10-28T18:55:18.220Z,28.35
2022-10-28T19:00:43.394Z,26.55
2022-10-28T19:06:09.592Z,27.10
2022-10-28T19:11:34.460Z,28.90
2022-10-28T19:16:59.408Z,29.83
2022-10-28T19:22:23.178Z,29.58
2022-10-28T19:27:46.859Z,31.70
2022-10-28T19:33:11.841Z,29.40
2022-10-28T19:38:36.854Z,29.38
2022-10-28T19:44:02.173Z,27.52
2022-10-28T19:49:32.504Z,28.10
2022-10-28T19:54:59.274Z,29.42
2022-10-28T20:00:22.897Z,28.05
2022-10-28T20:05:47.845Z,28.35
2022-10-28T20:11:13.441Z,26.15
2022-10-28T20:16:37.183Z,24.90
2022-10-28T20:22:02.157Z,26.23
2022-10-28T20:27:25.708Z,27.30
2022-10-28T20:32:53.339Z,25.75
2022-10-28T20:38:21.088Z,26.58
2022-10-28T20:43:44.710Z,29.55
2022-10-28T20:49:10.230Z,29.50
2022-10-28T20:54:35.210Z,25.67
2022-10-28T20:59:58.846Z,24.02
2022-10-28T21:05:22.508Z,22.85
2022-10-28T21:10:47.426Z,22.17
2022-10-28T21:16:12.677Z,23.42
2022-10-28T21:21:36.336Z,23.58
2022-10-28T21:27:01.328Z,24.02
2022-10-28T21:32:25.446Z,24.15
2022-10-28T21:37:49.159Z,24.20
2022-10-28T21:43:14.116Z,24.00
2022-10-28T21:48:38.886Z,22.17
2022-10-28T21:54:02.480Z,21.17
2022-10-28T21:59:27.489Z,22.25
2022-10-28T22:04:51.356Z,20.80
2022-10-28T22:10:15.119Z,21.98
2022-10-28T22:15:40.082Z,21.90
2022-10-28T22:21:05.739Z,19.65
2022-10-28T22:26:31.460Z,20.50
2022-10-28T22:31:56.402Z,21.42
2022-10-28T22:37:20.058Z,21.50
2022-10-28T22:42:43.620Z,21.42
2022-10-28T22:48:09.912Z,22.52
2022-10-28T22:53:33.740Z,20.98
2022-10-28T22:58:59.355Z,20.83
2022-10-28T23:04:24.311Z,21.52
2022-10-28T23:09:47.915Z,21.75
2022-10-28T23:15:11.564Z,21.10
2022-10-28T23:20:37.284Z,22.52
2022-10-28T23:26:00.953Z,22.85
2022-10-28T23:31:25.041Z,21.58
2022-10-28T23:36:53.971Z,21.65
2022-10-28T23:42:17.614Z,22.65
2022-10-28T23:47:41.302Z,22.17
2022-10-28T23:53:06.245Z,24.10
2022-10-28T23:58:37.473Z,24.58
